Latest Weather Observations for Alva Beach

IDQ60801

Issued at 8:02 pm EST Sunday 26 February 2017 (issued every 30 minutes, with the page automatically refreshed every 10 minutes)

About weather observations | Map of weather stations | Latest weather observations for QLD | Other Formats
Station Details ID: 033295 Name: ALVA BEACH Lat: -19.46 Lon: 147.48 Height: 7.5 m
Data from the previous 72 hours. | See also: Recent months at Alva Beach
Date/Time
EST
Temp
°C
App
Temp
°C
Dew
Point
°C
Rel
Hum
%
Delta-T
°C
Wind Press
QNH
hPa
Press
MSL
hPa
Rain since
9am
mm
Dir  Spd
km/h
Gust
km/h
Spd
kts
Gust
kts
26/08:00pm 28.2 26.8 22.0 69 4.2 ENE 32 41 17 22 1010.0 1010.0 -
26/07:30pm 28.4 27.1 22.4 70 4.1 ENE 33 46 18 25 1009.4 1009.4 0.0
26/07:00pm 28.3 26.5 21.6 67 4.5 ENE 33 43 18 23 1009.1 1009.1 0.0
26/06:30pm 28.5 26.8 21.3 65 4.8 ENE 32 44 17 24 1008.8 1008.8 0.0
26/06:00pm 28.8 27.5 22.1 67 4.5 ENE 32 43 17 23 1008.7 1008.7 0.0
26/05:30pm 28.9 27.2 21.7 65 4.8 ENE 33 43 18 23 1008.6 1008.6 0.0
26/05:00pm 29.1 27.9 21.6 64 5.0 ENE 30 41 16 22 1008.6 1008.6 0.0
26/04:30pm 29.4 28.0 21.9 64 5.1 ENE 32 43 17 23 1008.5 1008.5 0.0
26/04:00pm 29.6 28.7 21.5 61 5.4 ENE 28 39 15 21 1008.4 1008.4 0.0
26/03:30pm 29.7 29.2 21.4 61 5.6 ENE 26 37 14 20 1008.4 1008.4 0.0
26/03:00pm 29.9 29.3 21.3 60 5.8 ENE 26 35 14 19 1008.6 1008.6 0.0
26/02:30pm 30.0 29.2 20.8 57 6.1 ENE 26 35 14 19 1008.8 1008.8 0.0
26/02:00pm 30.0 29.4 20.5 56 6.3 ENE 24 33 13 18 1009.2 1009.2 0.0
26/01:30pm 30.0 29.4 20.5 56 6.3 ENE 24 33 13 18 1009.6 1009.6 0.0
26/01:00pm 29.8 30.2 20.9 59 5.9 ENE 20 30 11 16 1010.1 1010.1 0.0
26/12:30pm 30.0 30.5 21.1 59 5.9 ENE 20 30 11 16 1010.5 1010.5 0.0
26/12:00pm 31.2 33.5 22.8 61 5.8 E 15 24 8 13 1011.0 1011.0 0.0
26/11:30am 30.1 32.2 22.5 63 5.2 ESE 15 26 8 14 1011.2 1011.2 0.0
26/11:00am 30.6 33.4 23.0 64 5.2 E 13 26 7 14 1011.2 1011.2 0.0
26/10:30am 29.9 32.8 23.1 67 4.7 ESE 13 24 7 13 1011.3 1011.3 0.0
26/10:00am 29.1 30.2 21.3 62 5.2 ESE 17 26 9 14 1011.4 1011.4 0.0
26/09:30am 29.7 30.9 22.2 64 5.1 E 19 28 10 15 1011.6 1011.6 0.0
26/09:00am 29.7 31.4 22.4 65 5.0 E 17 30 9 16 1011.6 1011.6 1.0
26/08:30am 28.6 28.7 21.9 67 4.5 E 24 35 13 19 1011.4 1011.4 1.0
26/08:00am 27.2 29.3 21.7 72 3.7 ESE 13 24 7 13 1011.2 1011.2 1.0
26/07:30am 27.2 28.2 22.2 74 3.4 E 20 30 11 16 1010.8 1010.8 1.0
26/07:00am 25.2 27.9 22.9 87 1.6 ESE 13 22 7 12 1010.6 1010.6 1.0
26/06:30am 24.3 26.0 22.4 89 1.3 E 17 35 9 19 1010.2 1010.2 0.8
26/06:00am 25.1 27.1 23.0 88 1.4 ENE 17 26 9 14 1010.0 1010.0 0.4
26/05:30am 24.1 27.1 22.0 88 1.4 S 9 13 5 7 1009.8 1009.8 0.2
26/05:00am 24.2 26.5 20.7 81 2.3 S 9 13 5 7 1009.3 1009.3 0.2
26/04:30am 23.9 26.2 20.6 82 2.2 SSW 9 11 5 6 1009.2 1009.2 0.2
26/04:00am 24.1 26.8 20.6 81 2.3 SW 7 11 4 6 1009.1 1009.1 0.2
26/03:30am 25.3 28.0 20.3 74 3.3 S 6 17 3 9 1009.0 1009.0 0.2
26/03:00am 26.9 28.8 21.4 72 3.7 ESE 13 20 7 11 1009.1 1009.1 0.2
26/02:30am 26.7 28.8 21.7 74 3.3 E 13 20 7 11 1009.1 1009.1 0.2
26/02:00am 26.9 28.6 21.6 72 3.5 ESE 15 24 8 13 1009.3 1009.3 0.2
26/01:30am 27.0 29.1 21.7 73 3.5 E 13 22 7 12 1009.7 1009.7 0.2
26/01:00am 27.1 28.9 21.8 73 3.5 E 15 24 8 13 1010.1 1010.1 0.2
26/12:30am 27.2 28.4 21.5 71 3.8 E 17 24 9 13 1010.5 1010.5 0.2
26/12:00am 27.6 28.9 21.6 70 4.0 ESE 17 30 9 16 1010.6 1010.6 0.2
 
Date/Time
EST
Temp
°C
App
Temp
°C
Dew
Point
°C
Rel
Hum
%
Delta-T
°C
Wind Press
QNH
hPa
Press
MSL
hPa
Rain since
9am
mm
Dir  Spd
km/h
Gust
km/h
Spd
kts
Gust
kts
25/11:30pm 27.6 28.5 21.6 70 4.0 ESE 19 28 10 15 1010.9 1010.9 0.2
25/11:00pm 27.7 28.3 21.0 67 4.4 E 19 30 10 16 1011.0 1011.0 0.2
25/10:30pm 27.9 27.2 20.2 63 5.0 E 24 33 13 18 1011.2 1011.2 0.2
25/10:00pm 27.9 28.2 20.7 65 4.8 E 20 33 11 18 1010.9 1010.9 0.2
25/09:30pm 28.1 28.7 21.1 65 4.7 E 19 37 10 20 1010.8 1010.8 0.2
25/09:00pm 28.2 27.5 21.0 65 4.8 E 26 37 14 20 1010.7 1010.7 0.2
25/08:30pm 28.3 28.3 21.6 67 4.5 ENE 24 33 13 18 1010.6 1010.6 0.2
25/08:00pm 28.4 27.9 21.4 66 4.7 ENE 26 35 14 19 1010.3 1010.3 0.2
25/07:30pm 28.5 27.8 21.0 64 5.0 ENE 26 35 14 19 1010.1 1010.1 0.2
25/07:00pm 28.5 27.4 21.0 64 5.0 ENE 28 37 15 20 1009.8 1009.8 0.2
25/06:30pm 28.4 27.1 19.9 60 5.6 ENE 26 37 14 20 1009.7 1009.7 0.2
25/06:00pm 28.6 27.8 20.9 63 5.1 ENE 26 33 14 18 1009.4 1009.4 0.2
25/05:30pm 28.8 28.8 21.6 65 4.8 ENE 24 35 13 19 1009.3 1009.3 0.2
25/05:00pm 29.2 28.3 20.6 59 5.7 ENE 26 35 14 19 1009.1 1009.1 0.2
25/04:30pm 29.3 28.9 21.0 61 5.5 ENE 24 32 13 17 1008.9 1008.9 0.2
25/04:00pm 29.6 29.4 21.3 61 5.6 ENE 24 35 13 19 1008.9 1008.9 0.2
25/03:30pm 29.6 29.8 22.1 64 5.1 ENE 24 35 13 19 1008.9 1008.9 0.2
25/03:00pm 29.6 29.5 22.3 65 5.0 ENE 26 32 14 17 1009.2 1009.2 0.2
25/02:30pm 29.9 30.4 22.6 65 5.0 ENE 24 32 13 17 1009.4 1009.4 0.2
25/02:00pm 30.2 30.8 22.1 62 5.5 ENE 22 30 12 16 1009.6 1009.6 0.2
25/01:30pm 29.8 30.3 21.2 60 5.7 ENE 20 28 11 15 1010.2 1010.2 0.2
25/01:00pm 29.8 30.7 22.0 63 5.3 ENE 20 28 11 15 1010.4 1010.4 0.2
25/12:30pm 29.9 31.2 22.3 63 5.2 ENE 19 30 10 16 1010.9 1010.9 0.0
25/12:00pm 29.9 32.2 22.1 63 5.3 E 13 22 7 12 1011.4 1011.4 0.0
25/11:30am 30.4 33.8 24.1 69 4.4 E 13 19 7 10 1011.9 1011.9 0.0
25/11:00am 30.1 33.5 24.0 70 4.2 E 13 24 7 13 1012.3 1012.3 0.0
25/10:30am 28.3 29.6 20.8 63 5.0 ENE 15 20 8 11 1012.6 1012.6 0.0
25/10:00am 30.0 33.5 24.9 74 3.6 ESE 15 24 8 13 1012.6 1012.6 0.0
25/09:30am 28.4 32.9 25.8 86 1.8 ESE 13 24 7 13 1012.7 1012.7 0.0
25/09:00am 25.6 31.3 24.4 93 0.8 SW 2 7 1 4 1012.7 1012.7 21.0
25/08:30am 24.2 27.5 22.5 90 1.1 SSE 9 17 5 9 1012.6 1012.6 20.6
25/08:00am 25.7 30.2 23.9 90 1.2 SSW 7 13 4 7 1012.4 1012.4 6.8
25/07:30am 25.5 29.4 23.6 89 1.3 SE 9 20 5 11 1012.2 1012.2 6.8
25/07:00am 27.5 30.2 22.9 76 3.1 E 13 19 7 10 1011.9 1011.9 2.0
25/06:30am 27.4 29.7 22.8 76 3.1 E 15 22 8 12 1011.6 1011.6 2.0
25/06:00am 27.0 28.6 21.5 72 3.7 E 15 24 8 13 1011.2 1011.2 2.0
25/05:30am 27.0 27.8 22.4 76 3.1 ENE 22 28 12 15 1010.9 1010.9 2.0
25/05:00am 26.6 28.3 22.4 78 2.8 ESE 17 26 9 14 1010.7 1010.7 2.0
25/04:30am 26.7 28.4 22.3 77 3.0 ESE 17 30 9 16 1010.5 1010.5 2.0
25/04:00am 27.1 29.6 23.1 79 2.7 E 15 24 8 13 1010.4 1010.4 2.0
25/03:30am 27.3 28.9 22.9 77 3.0 ENE 19 26 10 14 1010.5 1010.5 2.0
25/03:00am 26.9 28.8 22.7 78 2.8 E 17 33 9 18 1010.7 1010.7 2.0
25/02:30am 27.8 28.6 23.2 76 3.1 ENE 24 35 13 19 1010.6 1010.6 2.0
25/02:00am 27.4 28.3 22.6 75 3.3 E 22 32 12 17 1010.8 1010.8 2.0
25/01:30am 26.4 28.2 22.5 79 2.6 SE 17 30 9 16 1011.0 1011.0 2.0
25/01:00am 27.7 28.2 22.6 74 3.5 ENE 24 32 13 17 1011.2 1011.2 2.0
25/12:30am 28.3 30.0 23.0 73 3.6 ENE 19 26 10 14 1011.6 1011.6 0.0
25/12:00am 28.4 29.2 23.1 73 3.6 ENE 24 33 13 18 1011.8 1011.8 0.0
 
Date/Time
EST
Temp
°C
App
Temp
°C
Dew
Point
°C
Rel
Hum
%
Delta-T
°C
Wind Press
QNH
hPa
Press
MSL
hPa
Rain since
9am
mm
Dir  Spd
km/h
Gust
km/h
Spd
kts
Gust
kts
24/11:30pm 28.1 28.6 22.6 72 3.7 ENE 24 32 13 17 1012.1 1012.1 0.0
24/11:00pm 28.4 28.8 22.4 70 4.1 ENE 24 32 13 17 1012.4 1012.4 0.0
24/10:30pm 28.3 29.3 22.8 72 3.7 ENE 22 33 12 18 1012.6 1012.6 0.0
24/10:00pm 28.1 29.2 23.0 74 3.5 E 22 35 12 19 1012.6 1012.6 0.0
24/09:30pm 28.2 29.0 23.1 74 3.5 ENE 24 37 13 20 1012.4 1012.4 0.0
24/09:00pm 28.4 28.1 22.6 71 3.9 ENE 28 37 15 20 1012.2 1012.2 0.0
24/08:30pm 28.4 29.0 23.5 75 3.4 ENE 26 37 14 20 1012.0 1012.0 0.0
24/08:00pm 28.8 28.9 23.2 71 3.8 ENE 28 39 15 21 1011.5 1011.5 0.0
24/07:30pm 28.6 29.2 23.5 74 3.5 ENE 26 33 14 18 1011.3 1011.3 0.0
24/07:00pm 28.7 28.3 22.4 68 4.3 ENE 28 37 15 20 1011.1 1011.1 0.0
24/06:30pm 28.8 29.0 22.8 70 4.1 ENE 26 33 14 18 1010.9 1010.9 0.0
24/06:00pm 28.7 28.9 22.7 70 4.1 ENE 26 33 14 18 1010.7 1010.7 0.0
24/05:30pm 28.7 30.1 23.6 74 3.5 E 22 32 12 17 1010.4 1010.4 0.0
24/05:00pm 28.6 30.2 23.3 73 3.6 E 20 32 11 17 1010.7 1010.7 0.0
24/04:30pm 28.7 29.5 23.1 71 3.8 ENE 24 35 13 19 1010.6 1010.6 0.0
24/04:00pm 30.2 32.2 23.9 69 4.4 ENE 20 28 11 15 1010.8 1010.8 0.0
24/03:30pm 29.7 30.1 23.2 68 4.5 ENE 26 33 14 18 1010.3 1010.3 0.0
24/03:00pm 29.7 30.4 22.9 67 4.7 ENE 24 35 13 19 1010.6 1010.6 0.0
24/02:30pm 29.8 30.4 23.5 69 4.3 ENE 26 35 14 19 1010.8 1010.8 0.0
24/02:00pm 30.0 31.0 24.2 71 4.0 ENE 26 39 14 21 1011.2 1011.2 0.0
24/01:30pm 30.1 31.8 23.0 65 4.9 ENE 19 28 10 15 1011.6 1011.6 0.0
24/01:00pm 31.3 33.5 23.9 64 5.1 E 19 26 10 14 1012.1 1012.1 0.0
24/12:30pm 31.0 32.7 22.3 60 5.9 E 17 26 9 14 1012.5 1012.5 0.0
24/12:00pm 31.3 34.1 23.7 64 5.3 E 15 24 8 13 1013.1 1013.1 0.0
24/11:30am 31.0 33.5 23.1 63 5.4 E 15 28 8 15 1013.4 1013.4 0.0
24/11:00am 30.5 32.1 22.9 64 5.2 ESE 19 30 10 16 1013.7 1013.7 0.0
24/10:30am 30.7 33.3 23.9 67 4.7 ESE 17 28 9 15 1013.7 1013.7 0.0
24/10:00am 29.8 32.6 23.0 67 4.7 ESE 13 22 7 12 1013.9 1013.9 0.0
24/09:30am 29.4 31.9 22.4 66 4.7 ESE 13 22 7 12 1013.9 1013.9 0.0
24/09:00am 29.4 31.7 22.1 65 4.9 ESE 13 26 7 14 1013.8 1013.8 0.2
24/08:30am 29.1 30.9 22.6 68 4.4 ESE 17 24 9 13 1013.5 1013.5 0.2
24/08:00am 28.6 30.6 22.3 68 4.3 ESE 15 24 8 13 1013.4 1013.4 0.2
24/07:30am 28.0 31.0 22.7 73 3.6 SE 11 20 6 11 1013.0 1013.0 0.2
24/07:00am 26.3 29.5 22.4 79 2.6 S 9 19 5 10 1012.9 1012.9 0.2
24/06:30am 26.2 28.7 21.8 77 2.9 SSE 11 22 6 12 1012.8 1012.8 0.2
24/06:00am 25.9 29.4 22.8 83 2.1 SSE 9 22 5 12 1012.7 1012.7 0.2
24/05:30am 27.0 29.4 23.0 79 2.7 ESE 15 24 8 13 1012.6 1012.6 0.2
24/05:00am 26.1 29.1 22.6 81 2.4 SSE 11 26 6 14 1012.3 1012.3 0.2
24/04:30am 25.7 29.2 22.8 84 2.0 SSE 9 20 5 11 1012.1 1012.1 0.2
24/04:00am 25.8 29.4 22.1 80 2.5 SSE 6 11 3 6 1012.0 1012.0 0.2
24/03:30am 26.3 29.8 21.9 77 2.9 SSE 6 13 3 7 1012.2 1012.2 0.2
24/03:00am 27.6 29.5 22.8 75 3.3 E 17 24 9 13 1012.2 1012.2 0.2
24/02:30am 27.8 29.2 22.5 73 3.6 ESE 19 30 10 16 1012.3 1012.3 0.2
24/02:00am 28.0 30.5 23.2 75 3.3 ESE 15 26 8 14 1012.6 1012.6 0.2
24/01:30am 28.0 30.0 22.9 74 3.5 ESE 17 33 9 18 1013.0 1013.0 0.2
24/01:00am 28.1 29.9 23.5 76 3.2 E 20 30 11 16 1013.3 1013.3 0.2
24/12:30am 28.3 30.2 23.7 76 3.2 ENE 20 32 11 17 1013.6 1013.6 0.2
24/12:00am 28.4 29.4 23.5 75 3.4 ENE 24 32 13 17 1013.8 1013.8 0.2
 
Date/Time
EST
Temp
°C
App
Temp
°C
Dew
Point
°C
Rel
Hum
%
Delta-T
°C
Wind Press
QNH
hPa
Press
MSL
hPa
Rain since
9am
mm
Dir  Spd
km/h
Gust
km/h
Spd
kts
Gust
kts
23/11:30pm 28.3 29.2 23.4 75 3.4 ENE 24 33 13 18 1014.0 1014.0 0.2
23/11:00pm 28.1 29.3 23.2 74 3.3 E 22 35 12 19 1014.2 1014.2 0.2
23/10:30pm 28.1 28.8 23.0 74 3.5 ENE 24 35 13 19 1014.1 1014.1 0.2
23/10:00pm 28.3 29.2 23.9 77 3.0 ENE 26 37 14 20 1014.0 1014.0 0.2
23/09:30pm 28.3 28.4 23.2 74 3.5 ENE 28 37 15 20 1013.7 1013.7 0.2
23/09:00pm 28.4 28.8 23.8 76 3.2 E 28 39 15 21 1013.4 1013.4 0.2
23/08:30pm 28.3 28.3 23.7 76 3.2 ENE 30 39 16 21 1013.1 1013.1 0.2

Other Formats:

Comma delimited format used in spreadsheet applications
http://www.bom.gov.au/fwo/IDQ60801/IDQ60801.95296.axf

JavaScript Object Notation format (JSON) in row-major order
http://www.bom.gov.au/fwo/IDQ60801/IDQ60801.95296.json